Time;durP1;ratioP1;P1;durP2;ratioP2;P2;SDS_P1;SDS_P2;PMS_P1;PMS_P2;Temp;Humidity;BMP_temperature;BMP_pressure;BME280_temperature;BME280_humidity;BME280_pressure;Samples;Min_cycle;Max_cycle;Signal;HPM_P1;HPM_P2
2022/10/31 00:00:51;;;;;;;15.35;5.75;;;16.10;99.90;;;;;;4994241;28;20050;-78
2022/10/31 00:03:17;;;;;;;12.57;5.53;;;16.00;99.90;;;;;;5010039;28;20042;-78
2022/10/31 00:05:47;;;;;;;14.25;5.85;;;16.10;99.90;;;;;;5009895;28;20057;-78
2022/10/31 00:08:13;;;;;;;12.32;5.07;;;16.10;99.90;;;;;;4977222;28;20064;-70
2022/10/31 00:10:39;;;;;;;18.05;5.32;;;16.00;99.90;;;;;;4990542;28;20817;-69
2022/10/31 00:13:05;;;;;;;11.70;5.10;;;16.00;99.90;;;;;;4988848;28;20046;-70
2022/10/31 00:15:35;;;;;;;16.20;4.65;;;16.00;99.90;;;;;;5021626;28;20171;-69
2022/10/31 00:18:01;;;;;;;10.20;5.25;;;15.90;99.90;;;;;;4990503;28;20517;-69
2022/10/31 00:20:27;;;;;;;12.05;5.00;;;15.90;99.90;;;;;;5010229;28;20038;-70
2022/10/31 00:22:53;;;;;;;12.48;5.32;;;15.90;99.90;;;;;;5005784;28;20379;-70
2022/10/31 00:25:20;;;;;;;10.07;4.32;;;15.80;99.90;;;;;;5005338;28;20042;-68
2022/10/31 00:27:46;;;;;;;18.65;6.13;;;15.80;99.90;;;;;;4989298;28;20057;-70
2022/10/31 00:30:12;;;;;;;14.70;5.07;;;15.80;99.90;;;;;;5022184;28;20045;-69
2022/10/31 00:32:37;;;;;;;11.02;4.70;;;15.80;99.90;;;;;;4988704;28;20052;-69
2022/10/31 00:35:03;;;;;;;9.20;4.53;;;15.80;99.90;;;;;;4988783;28;20247;-69
2022/10/31 00:37:29;;;;;;;13.85;5.60;;;15.70;99.90;;;;;;4989498;28;20053;-70
2022/10/31 00:39:55;;;;;;;13.93;5.32;;;15.70;99.90;;;;;;4984860;28;20942;-70
2022/10/31 00:42:21;;;;;;;16.08;5.22;;;15.70;99.90;;;;;;5004111;28;20087;-70
2022/10/31 00:44:46;;;;;;;14.07;4.93;;;15.70;99.90;;;;;;5005945;28;20057;-70
2022/10/31 00:47:12;;;;;;;14.45;4.70;;;15.60;99.90;;;;;;4983633;28;20046;-69
2022/10/31 00:49:38;;;;;;;18.13;4.88;;;15.50;99.90;;;;;;5014744;28;20211;-70
2022/10/31 00:52:03;;;;;;;10.80;4.63;;;15.40;99.90;;;;;;4989170;28;20050;-70
2022/10/31 00:54:30;;;;;;;13.68;4.22;;;15.30;99.90;;;;;;4985522;28;20656;-70
2022/10/31 00:56:57;;;;;;;10.32;4.05;;;15.40;99.90;;;;;;5001248;28;20464;-69
2022/10/31 00:59:22;;;;;;;15.18;4.80;;;15.40;99.90;;;;;;5020943;28;20133;-69
2022/10/31 01:01:48;;;;;;;13.05;5.28;;;15.40;99.90;;;;;;5006131;28;20121;-70
2022/10/31 01:04:14;;;;;;;16.25;4.80;;;15.40;99.90;;;;;;5004770;28;20334;-70
2022/10/31 01:06:39;;;;;;;14.27;5.15;;;15.40;99.90;;;;;;5005846;28;20046;-70
2022/10/31 01:09:05;;;;;;;13.45;4.65;;;15.40;99.90;;;;;;5004114;28;20056;-70
2022/10/31 01:11:31;;;;;;;10.77;4.97;;;15.40;99.90;;;;;;5004881;28;20542;-70
2022/10/31 01:13:57;;;;;;;13.35;5.30;;;15.40;99.90;;;;;;5004242;28;20045;-70
2022/10/31 01:16:24;;;;;;;9.93;4.40;;;15.30;99.90;;;;;;5004348;28;20493;-70
2022/10/31 01:18:50;;;;;;;9.30;4.28;;;15.30;99.90;;;;;;5004974;28;20045;-70
2022/10/31 01:21:18;;;;;;;12.30;4.50;;;15.30;99.90;;;;;;4987835;28;20045;-69
2022/10/31 01:23:44;;;;;;;13.93;5.47;;;15.20;99.90;;;;;;5004388;28;20046;-69
2022/10/31 01:26:12;;;;;;;9.38;4.28;;;15.20;99.90;;;;;;5005998;28;20081;-69
2022/10/31 01:28:38;;;;;;;;;;;15.20;99.90;;;;;;4984842;28;20046;-69
2022/10/31 01:31:06;;;;;;;11.55;4.53;;;15.10;99.90;;;;;;4988321;28;19913;-69
2022/10/31 01:33:32;;;;;;;13.33;5.07;;;15.10;99.90;;;;;;5000255;28;20095;-69
2022/10/31 01:35:58;;;;;;;14.52;4.85;;;15.20;99.90;;;;;;5004236;28;20053;-69
2022/10/31 01:38:24;;;;;;;10.50;5.07;;;15.20;99.90;;;;;;4987153;28;20046;-69
2022/10/31 01:40:50;;;;;;;10.73;4.80;;;15.20;99.90;;;;;;4986133;28;20745;-69
2022/10/31 01:43:15;;;;;;;12.65;5.07;;;15.20;99.90;;;;;;4985343;28;20042;-70
2022/10/31 01:46:06;;;;;;;9.80;4.38;;;15.30;99.90;;;;;;4988188;28;20706;-70
2022/10/31 01:48:31;;;;;;;16.25;5.22;;;15.30;99.90;;;;;;5004462;28;20075;-69
2022/10/31 01:50:57;;;;;;;12.05;4.97;;;15.30;99.90;;;;;;4998375;28;20050;-69
2022/10/31 01:53:23;;;;;;;10.93;5.25;;;15.20;99.90;;;;;;5005257;28;20084;-69
2022/10/31 01:55:49;;;;;;;12.98;5.05;;;15.20;99.90;;;;;;5004789;28;20131;-71
2022/10/31 01:58:19;;;;;;;14.00;5.32;;;15.20;99.90;;;;;;4986958;28;20042;-70
2022/10/31 02:00:46;;;;;;;16.23;5.55;;;15.20;99.90;;;;;;4971994;28;20046;-70
2022/10/31 02:03:12;;;;;;;11.93;5.80;;;15.20;99.90;;;;;;4971978;28;20117;-71
2022/10/31 02:05:38;;;;;;;14.82;4.80;;;15.20;99.90;;;;;;5003582;28;20041;-70
2022/10/31 02:08:26;;;;;;;14.45;4.95;;;15.20;99.90;;;;;;4986406;28;20041;-70
2022/10/31 02:10:52;;;;;;;11.57;5.25;;;15.30;99.90;;;;;;5004852;28;20152;-69
2022/10/31 02:13:19;;;;;;;16.50;5.75;;;15.30;99.90;;;;;;5004609;28;20080;-70
2022/10/31 02:15:45;;;;;;;16.40;5.18;;;15.30;99.90;;;;;;5004222;28;20133;-69
2022/10/31 02:18:11;;;;;;;14.25;5.53;;;15.30;99.90;;;;;;5003282;28;20046;-69
2022/10/31 02:21:10;;;;;;;12.63;5.53;;;15.30;99.90;;;;;;5012804;28;20105;-69
2022/10/31 02:23:45;;;;;;;14.68;6.03;;;15.10;99.90;;;;;;4999569;28;20112;-70
2022/10/31 02:26:29;;;;;;;12.52;5.45;;;15.10;99.90;;;;;;5003659;28;20050;-70
2022/10/31 02:29:03;;;;;;;16.80;5.60;;;15.20;99.90;;;;;;5003053;28;20038;-69
2022/10/31 02:31:32;;;;;;;16.63;5.88;;;15.10;99.90;;;;;;5002314;28;20062;-69
2022/10/31 02:34:02;;;;;;;;;;;15.20;99.90;;;;;;4998506;28;20457;-70
2022/10/31 02:37:14;;;;;;;15.77;5.85;;;15.20;99.90;;;;;;4984839;28;19931;-70
2022/10/31 02:40:05;;;;;;;14.18;6.20;;;15.10;99.90;;;;;;4985625;28;20384;-69
2022/10/31 02:42:36;;;;;;;15.63;6.50;;;15.10;99.90;;;;;;5007407;28;20038;-69
2022/10/31 02:45:13;;;;;;;14.80;6.13;;;15.00;99.90;;;;;;5003993;28;20132;-69
2022/10/31 02:47:39;;;;;;;15.65;5.93;;;15.00;99.90;;;;;;5001166;28;20056;-69
2022/10/31 02:50:23;;;;;;;14.00;5.47;;;15.00;99.90;;;;;;5016034;28;20141;-70
2022/10/31 02:52:52;;;;;;;14.40;5.63;;;15.10;99.90;;;;;;5020424;28;20072;-70
2022/10/31 02:55:27;;;;;;;13.52;5.97;;;15.00;99.90;;;;;;5007188;28;20764;-69
2022/10/31 02:58:05;;;;;;;12.45;6.38;;;14.90;99.90;;;;;;4987827;28;20057;-69
2022/10/31 03:00:34;;;;;;;14.20;6.50;;;15.00;99.90;;;;;;4984853;28;20528;-68
2022/10/31 03:03:13;;;;;;;16.48;7.65;;;15.00;99.90;;;;;;4987164;28;20284;-69
2022/10/31 03:05:51;;;;;;;18.95;7.68;;;15.00;99.90;;;;;;5013728;28;20053;-69
2022/10/31 03:08:55;;;;;;;22.10;8.73;;;15.00;99.90;;;;;;5003946;28;20076;-69
2022/10/31 03:11:23;;;;;;;19.35;7.85;;;15.10;99.90;;;;;;4998729;28;20069;-69
2022/10/31 03:14:20;;;;;;;16.50;8.20;;;15.10;99.90;;;;;;4974763;28;20121;-69
2022/10/31 03:16:48;;;;;;;22.88;8.82;;;15.10;99.90;;;;;;4990354;28;20482;-69
2022/10/31 03:19:26;;;;;;;18.42;9.55;;;15.10;99.90;;;;;;5004032;28;20656;-69
2022/10/31 03:22:00;;;;;;;26.25;10.55;;;15.20;99.90;;;;;;4986283;28;20041;-70
2022/10/31 03:24:29;;;;;;;22.90;10.43;;;15.20;99.90;;;;;;5006016;28;20046;-69
2022/10/31 03:26:56;;;;;;;19.20;10.77;;;15.20;99.90;;;;;;4988899;28;20090;-69
2022/10/31 03:29:23;;;;;;;20.30;10.13;;;15.30;99.90;;;;;;4988899;28;20046;-69
2022/10/31 03:31:52;;;;;;;26.98;10.02;;;15.30;99.90;;;;;;4987679;28;20535;-71
2022/10/31 03:34:18;;;;;;;23.27;9.95;;;15.30;99.90;;;;;;4990476;28;20045;-69
2022/10/31 03:36:44;;;;;;;20.42;9.40;;;15.30;99.90;;;;;;5002040;28;20065;-69
2022/10/31 03:39:11;;;;;;;22.27;10.95;;;15.20;99.90;;;;;;5001335;28;20423;-69
2022/10/31 03:41:40;;;;;;;19.85;10.63;;;15.10;99.90;;;;;;5006804;28;20049;-69
2022/10/31 03:44:16;;;;;;;22.08;9.60;;;15.20;99.90;;;;;;4988191;28;20043;-70
2022/10/31 03:46:42;;;;;;;25.63;11.73;;;15.20;99.90;;;;;;5005539;28;20365;-69
2022/10/31 03:49:07;;;;;;;22.17;10.43;;;15.20;99.90;;;;;;5006957;28;20464;-69
2022/10/31 03:51:33;;;;;;;26.75;12.50;;;15.20;99.90;;;;;;5006648;28;20053;-70
2022/10/31 03:54:13;;;;;;;22.88;11.95;;;15.20;99.90;;;;;;5003089;28;20088;-69
2022/10/31 03:57:08;;;;;;;21.75;11.40;;;15.10;99.90;;;;;;4990628;28;20041;-69
2022/10/31 03:59:42;;;;;;;23.45;12.70;;;15.20;99.90;;;;;;5006457;28;20050;-69
2022/10/31 04:02:14;;;;;;;23.00;12.52;;;15.20;99.90;;;;;;5022644;28;20713;-69
2022/10/31 04:04:40;;;;;;;25.45;14.45;;;15.20;99.90;;;;;;4991031;28;20041;-70
2022/10/31 04:07:05;;;;;;;27.85;14.13;;;15.20;99.90;;;;;;5004927;28;20050;-69
2022/10/31 04:09:32;;;;;;;30.98;14.57;;;15.20;99.90;;;;;;5006009;28;20051;-69
2022/10/31 04:11:58;;;;;;;25.77;12.95;;;15.30;99.90;;;;;;5005325;28;20057;-69
2022/10/31 04:14:24;;;;;;;29.05;13.50;;;15.30;99.90;;;;;;4986714;28;20050;-69
2022/10/31 04:16:50;;;;;;;27.83;13.30;;;15.30;99.90;;;;;;5004387;28;20081;-69
2022/10/31 04:19:16;;;;;;;29.85;13.65;;;15.30;99.90;;;;;;5006056;28;20399;-69
2022/10/31 04:21:44;;;;;;;28.33;14.27;;;15.30;99.90;;;;;;4987185;28;20046;-69
2022/10/31 04:24:10;;;;;;;25.60;13.82;;;15.20;99.90;;;;;;5038672;28;20072;-69
2022/10/31 04:26:36;;;;;;;31.45;14.13;;;15.30;99.90;;;;;;4989025;28;20064;-68
2022/10/31 04:29:01;;;;;;;25.27;13.65;;;15.20;99.90;;;;;;5001667;28;20430;-69
2022/10/31 04:31:27;;;;;;;31.13;14.10;;;15.20;99.90;;;;;;5005596;28;20046;-69
2022/10/31 04:33:53;;;;;;;25.95;13.00;;;15.20;99.90;;;;;;4989225;28;20850;-68
2022/10/31 04:36:19;;;;;;;30.13;13.70;;;15.20;99.90;;;;;;5005659;28;20856;-70
2022/10/31 04:38:45;;;;;;;27.30;13.95;;;15.20;99.90;;;;;;4986162;28;20045;-69
2022/10/31 04:41:11;;;;;;;28.05;13.93;;;15.20;99.90;;;;;;5003853;28;20388;-69
2022/10/31 04:43:36;;;;;;;23.80;14.10;;;15.20;99.90;;;;;;5006119;28;20050;-69
2022/10/31 04:46:02;;;;;;;35.72;14.88;;;15.20;99.90;;;;;;4984627;28;20144;-70
2022/10/31 04:48:28;;;;;;;28.33;14.07;;;15.20;99.90;;;;;;4998938;28;20061;-69
2022/10/31 04:50:59;;;;;;;28.58;15.02;;;15.20;99.90;;;;;;5002138;28;20060;-70
2022/10/31 04:53:24;;;;;;;26.05;13.80;;;15.20;99.90;;;;;;4989551;28;20052;-69
2022/10/31 04:55:50;;;;;;;28.33;13.88;;;15.20;99.90;;;;;;5003842;28;20053;-69
2022/10/31 04:58:16;;;;;;;29.75;16.08;;;15.20;99.90;;;;;;5004229;28;20570;-70
2022/10/31 05:00:42;;;;;;;29.20;14.13;;;15.20;99.90;;;;;;5005492;28;20096;-69
2022/10/31 05:03:07;;;;;;;32.65;14.32;;;15.10;99.90;;;;;;5004156;28;20968;-70
2022/10/31 05:05:33;;;;;;;28.67;14.85;;;15.10;99.90;;;;;;5005115;28;20124;-69
2022/10/31 05:07:59;;;;;;;29.98;15.15;;;15.10;99.90;;;;;;5006056;28;20049;-69
2022/10/31 05:10:26;;;;;;;30.30;15.02;;;15.10;99.90;;;;;;5005037;28;20112;-70
2022/10/31 05:12:56;;;;;;;30.47;15.87;;;15.10;99.90;;;;;;4990778;28;20054;-71
2022/10/31 05:15:23;;;;;;;30.13;15.32;;;15.10;99.90;;;;;;5004665;28;20119;-69
2022/10/31 05:17:49;;;;;;;29.35;16.30;;;15.10;99.90;;;;;;4984836;28;20129;-70
2022/10/31 05:20:15;;;;;;;33.75;16.33;;;15.10;99.90;;;;;;4989662;28;20192;-69
2022/10/31 05:22:48;;;;;;;33.67;16.23;;;15.10;99.90;;;;;;5006529;28;20231;-69
2022/10/31 05:25:14;;;;;;;29.60;14.82;;;15.10;99.90;;;;;;5004005;28;20050;-69
2022/10/31 05:27:45;;;;;;;30.80;16.20;;;15.10;99.90;;;;;;5008389;28;20049;-70
2022/10/31 05:30:11;;;;;;;28.27;15.90;;;15.00;99.90;;;;;;5003155;28;20045;-70
2022/10/31 05:32:41;;;;;;;33.83;16.88;;;15.00;99.90;;;;;;5006799;28;20049;-69
2022/10/31 05:35:12;;;;;;;29.52;16.30;;;15.00;99.90;;;;;;4990089;28;20125;-69
2022/10/31 05:37:39;;;;;;;35.33;17.85;;;15.00;99.90;;;;;;5007886;28;20053;-69
2022/10/31 05:40:07;;;;;;;32.15;16.63;;;15.00;99.90;;;;;;5007950;28;20045;-70
2022/10/31 05:42:32;;;;;;;31.35;16.05;;;15.00;99.90;;;;;;5004140;28;20351;-70
2022/10/31 05:44:58;;;;;;;31.02;16.92;;;15.00;99.90;;;;;;4991224;28;20069;-69
2022/10/31 05:47:24;;;;;;;34.55;16.48;;;15.00;99.90;;;;;;5007248;28;20150;-69
2022/10/31 05:49:53;;;;;;;34.78;17.73;;;14.90;99.90;;;;;;5005733;28;20837;-68
2022/10/31 05:52:18;;;;;;;33.78;17.13;;;14.90;99.90;;;;;;4989555;28;20100;-70
2022/10/31 05:54:44;;;;;;;31.75;17.08;;;14.90;99.90;;;;;;4989116;28;20464;-70
2022/10/31 05:57:10;;;;;;;38.05;18.10;;;14.90;99.90;;;;;;4987407;28;20058;-71
2022/10/31 05:59:36;;;;;;;34.30;17.40;;;14.90;99.90;;;;;;4990288;28;20050;-71
2022/10/31 06:02:01;;;;;;;33.55;17.85;;;14.80;99.90;;;;;;4990763;28;20076;-70
2022/10/31 06:04:27;;;;;;;38.88;18.52;;;14.80;99.90;;;;;;5003170;28;20038;-71
2022/10/31 06:06:53;;;;;;;27.70;17.27;;;14.80;99.90;;;;;;5008212;28;20050;-69
2022/10/31 06:09:19;;;;;;;36.97;17.85;;;14.80;99.90;;;;;;5008155;28;20140;-69
2022/10/31 06:11:44;;;;;;;34.13;17.83;;;14.80;99.90;;;;;;4987581;28;20052;-69
2022/10/31 06:14:10;;;;;;;30.17;17.20;;;14.70;99.90;;;;;;4991004;28;20431;-70
2022/10/31 06:16:36;;;;;;;31.42;17.67;;;14.70;99.90;;;;;;5007923;28;20057;-70
2022/10/31 06:19:02;;;;;;;31.33;17.75;;;14.70;99.90;;;;;;4991506;28;20049;-69
2022/10/31 06:21:27;;;;;;;33.45;18.35;;;14.60;99.90;;;;;;4987075;28;20081;-69
2022/10/31 06:23:53;;;;;;;34.78;17.73;;;14.60;99.90;;;;;;4989204;28;20725;-70
2022/10/31 06:26:19;;;;;;;32.00;17.52;;;14.60;99.90;;;;;;4989132;28;20069;-69
2022/10/31 06:28:45;;;;;;;32.40;17.77;;;14.60;99.90;;;;;;5003748;28;20169;-69
2022/10/31 06:31:10;;;;;;;30.48;17.85;;;14.60;99.90;;;;;;4991675;28;20060;-69
2022/10/31 06:33:36;;;;;;;34.72;17.65;;;14.60;99.90;;;;;;5006212;28;20053;-69
2022/10/31 06:36:03;;;;;;;28.98;17.88;;;14.60;99.90;;;;;;5002909;28;20065;-69
2022/10/31 06:38:28;;;;;;;34.58;17.92;;;14.50;99.90;;;;;;5008008;28;20266;-69
2022/10/31 06:40:54;;;;;;;36.50;17.13;;;14.50;99.90;;;;;;5007912;28;20679;-69
2022/10/31 06:43:21;;;;;;;35.05;17.65;;;14.40;99.90;;;;;;4986289;28;20046;-69
2022/10/31 06:45:47;;;;;;;38.75;18.67;;;14.50;99.90;;;;;;5009823;28;20042;-69
2022/10/31 06:48:13;;;;;;;36.83;18.80;;;14.50;99.90;;;;;;5009086;28;20057;-69
2022/10/31 06:50:39;;;;;;;43.63;20.13;;;14.50;99.90;;;;;;4993517;28;20204;-68
2022/10/31 06:53:05;;;;;;;30.52;17.50;;;14.50;99.90;;;;;;5011868;28;20282;-70
2022/10/31 06:55:31;;;;;;;35.53;18.45;;;14.50;99.90;;;;;;4993703;28;20042;-69
2022/10/31 06:57:58;;;;;;;33.15;17.85;;;14.50;99.90;;;;;;4992053;28;20050;-69
2022/10/31 07:00:25;;;;;;;32.20;15.98;;;14.50;99.90;;;;;;5010787;28;20046;-69
2022/10/31 07:02:55;;;;;;;35.20;17.27;;;14.60;99.90;;;;;;4993697;28;20379;-69
2022/10/31 07:05:21;;;;;;;32.55;18.55;;;14.50;99.90;;;;;;5010967;28;20625;-68
2022/10/31 07:07:47;;;;;;;28.95;16.65;;;14.60;99.90;;;;;;5006290;28;20096;-69
2022/10/31 07:10:12;;;;;;;32.92;17.63;;;14.60;99.90;;;;;;4991979;28;20054;-69
2022/10/31 07:12:38;;;;;;;37.22;17.73;;;14.60;99.90;;;;;;4994935;28;20057;-70
2022/10/31 07:15:06;;;;;;;30.13;16.52;;;14.60;99.90;;;;;;4994706;28;20042;-69
2022/10/31 07:17:31;;;;;;;36.15;17.75;;;14.70;99.90;;;;;;5005855;28;20096;-69
2022/10/31 07:19:57;;;;;;;31.80;17.08;;;14.70;99.90;;;;;;4990915;28;20042;-70
2022/10/31 07:22:23;;;;;;;33.22;17.08;;;14.70;99.90;;;;;;5006160;28;20046;-69
2022/10/31 07:24:49;;;;;;;32.33;16.73;;;14.70;99.90;;;;;;5010703;28;20037;-69
2022/10/31 07:27:14;;;;;;;34.75;17.88;;;14.80;99.90;;;;;;4991133;28;20042;-69
2022/10/31 07:29:40;;;;;;;34.35;17.50;;;14.80;99.90;;;;;;5009475;28;20050;-69
2022/10/31 07:32:07;;;;;;;36.47;17.95;;;14.80;99.90;;;;;;5010051;28;20067;-69
2022/10/31 07:34:33;;;;;;;33.25;18.35;;;14.80;99.90;;;;;;5010754;28;20045;-70
2022/10/31 07:36:58;;;;;;;38.03;19.25;;;14.80;99.90;;;;;;4990374;28;20431;-69
2022/10/31 07:39:25;;;;;;;37.85;18.85;;;14.80;99.90;;;;;;5007436;28;20605;-70
2022/10/31 07:41:51;;;;;;;32.08;18.50;;;14.90;99.90;;;;;;5010352;28;20124;-70
2022/10/31 07:44:19;;;;;;;36.10;18.02;;;14.90;99.90;;;;;;5007975;28;20281;-70
2022/10/31 07:46:48;;;;;;;;;;;14.90;99.90;;;;;;5011057;28;20104;-70
2022/10/31 07:49:14;;;;;;;37.95;19.33;;;15.00;99.90;;;;;;4993557;28;19952;-69
2022/10/31 07:51:39;;;;;;;43.45;21.35;;;15.00;99.90;;;;;;5009798;28;20091;-70
2022/10/31 07:54:05;;;;;;;38.35;19.90;;;15.00;99.90;;;;;;5007337;28;20554;-70
2022/10/31 07:56:31;;;;;;;36.80;18.42;;;15.00;99.90;;;;;;5009544;28;20053;-70
2022/10/31 07:58:57;;;;;;;36.55;18.73;;;15.10;99.90;;;;;;4989522;28;20129;-69
2022/10/31 08:01:22;;;;;;;36.20;18.95;;;15.10;99.90;;;;;;5010126;28;20156;-69
2022/10/31 08:03:48;;;;;;;35.90;19.48;;;15.10;99.90;;;;;;5008391;28;20049;-68
2022/10/31 08:06:14;;;;;;;34.45;18.10;;;15.10;99.90;;;;;;4991740;28;20057;-68
2022/10/31 08:08:41;;;;;;;34.10;18.85;;;15.10;99.90;;;;;;5005573;28;20056;-70
2022/10/31 08:11:07;;;;;;;31.65;18.52;;;15.10;99.90;;;;;;5008623;28;20053;-67
2022/10/31 08:13:33;;;;;;;35.15;18.35;;;15.20;99.90;;;;;;5010558;28;20058;-68
2022/10/31 08:16:03;;;;;;;36.78;18.73;;;15.20;99.90;;;;;;4987780;28;20498;-68
2022/10/31 08:18:29;;;;;;;33.17;18.30;;;15.30;99.90;;;;;;5009787;28;20053;-68
2022/10/31 08:20:55;;;;;;;36.40;20.67;;;15.30;99.90;;;;;;5006464;28;20116;-68
2022/10/31 08:23:20;;;;;;;36.55;20.42;;;15.40;99.90;;;;;;5006337;28;20050;-68
2022/10/31 08:25:47;;;;;;;47.05;25.15;;;15.40;99.90;;;;;;5013512;28;20097;-68
2022/10/31 08:28:13;;;;;;;50.97;27.10;;;15.40;99.90;;;;;;5009094;28;20080;-69
2022/10/31 08:30:39;;;;;;;44.90;25.90;;;15.50;99.90;;;;;;5008384;28;20050;-68
2022/10/31 08:33:13;;;;;;;46.42;25.75;;;15.50;99.90;;;;;;5009044;28;20207;-68
2022/10/31 08:35:38;;;;;;;51.40;27.48;;;15.40;99.90;;;;;;5009543;28;20054;-68
2022/10/31 08:38:04;;;;;;;54.08;27.85;;;15.50;99.90;;;;;;5006131;28;20563;-67
2022/10/31 08:40:31;;;;;;;48.42;27.48;;;15.50;99.90;;;;;;5024745;28;20115;-67
2022/10/31 08:42:57;;;;;;;55.85;29.73;;;15.50;99.90;;;;;;5008447;28;20132;-66
2022/10/31 08:45:23;;;;;;;52.28;28.27;;;15.50;99.90;;;;;;5009279;28;20065;-67
2022/10/31 08:47:49;;;;;;;52.20;27.15;;;15.50;99.90;;;;;;5008144;28;20626;-69
2022/10/31 08:50:15;;;;;;;49.47;28.25;;;15.60;99.90;;;;;;4992518;28;20045;-68
2022/10/31 08:52:41;;;;;;;49.17;26.88;;;15.60;99.90;;;;;;5008675;28;20056;-68
2022/10/31 08:55:07;;;;;;;48.60;26.08;;;15.70;99.90;;;;;;4975373;28;20038;-70
2022/10/31 08:57:33;;;;;;;52.15;27.60;;;15.80;99.90;;;;;;5008807;28;20084;-70
2022/10/31 08:59:59;;;;;;;51.53;27.05;;;15.80;99.90;;;;;;4990935;28;20038;-69
2022/10/31 09:02:25;;;;;;;50.13;27.58;;;15.80;99.90;;;;;;4991760;28;20041;-67
2022/10/31 09:04:50;;;;;;;45.25;24.88;;;15.90;99.90;;;;;;5005867;28;20053;-67
2022/10/31 09:07:16;;;;;;;42.63;24.73;;;16.00;99.90;;;;;;5007269;28;20073;-68
2022/10/31 09:09:42;;;;;;;45.10;25.90;;;16.10;99.90;;;;;;4991418;28;20084;-67
2022/10/31 09:12:08;;;;;;;47.65;26.92;;;16.20;99.90;;;;;;5019381;28;20062;-67
2022/10/31 09:14:34;;;;;;;51.17;26.67;;;16.20;99.90;;;;;;5006706;28;20497;-69
2022/10/31 09:16:59;;;;;;;48.10;27.55;;;16.30;99.90;;;;;;4990340;28;20115;-67
2022/10/31 09:19:25;;;;;;;51.83;26.15;;;16.30;99.90;;;;;;5021140;28;20510;-67
2022/10/31 09:21:54;;;;;;;53.08;28.58;;;16.40;99.90;;;;;;5019396;28;20070;-68
2022/10/31 09:24:20;;;;;;;42.33;25.65;;;16.40;99.90;;;;;;4990928;28;20045;-68
2022/10/31 09:26:48;;;;;;;49.03;27.52;;;16.50;99.90;;;;;;4990898;28;20549;-68
2022/10/31 09:29:14;;;;;;;49.60;26.92;;;16.60;99.90;;;;;;5007809;28;20454;-68
2022/10/31 09:31:40;;;;;;;49.78;29.10;;;16.60;99.90;;;;;;5009784;28;20050;-67
2022/10/31 09:34:07;;;;;;;52.80;30.50;;;16.60;99.90;;;;;;5003556;28;20046;-68
2022/10/31 09:36:33;;;;;;;50.20;27.77;;;16.70;99.90;;;;;;4992244;28;20054;-67
2022/10/31 09:39:01;;;;;;;51.93;29.03;;;16.70;99.90;;;;;;5004450;28;20301;-67
2022/10/31 09:41:55;;;;;;;56.65;28.58;;;16.90;99.90;;;;;;4988553;28;20149;-66
2022/10/31 09:44:41;;;;;;;53.75;29.75;;;16.90;99.90;;;;;;5006847;28;20046;-68
2022/10/31 09:47:20;;;;;;;55.92;28.58;;;17.00;99.90;;;;;;5018331;28;20046;-68
2022/10/31 09:50:12;;;;;;;45.28;27.92;;;17.20;99.90;;;;;;4989633;28;20046;-68
2022/10/31 09:52:40;;;;;;;49.40;28.15;;;17.30;99.90;;;;;;5003433;28;20054;-68
2022/10/31 09:55:20;;;;;;;51.35;28.60;;;17.50;99.90;;;;;;5007223;28;20056;-68
2022/10/31 09:57:46;;;;;;;52.78;27.23;;;17.60;99.90;;;;;;5007744;28;20403;-68
2022/10/31 10:00:20;;;;;;;44.55;24.77;;;17.60;99.90;;;;;;4987997;28;20046;-68
2022/10/31 10:03:06;;;;;;;42.75;24.52;;;17.80;99.90;;;;;;4997742;28;20053;-67
2022/10/31 10:05:52;;;;;;;51.67;25.75;;;17.90;99.90;;;;;;5022866;28;20480;-68
2022/10/31 10:08:22;;;;;;;49.95;26.98;;;18.10;99.90;;;;;;4990660;28;20371;-67
2022/10/31 10:11:09;;;;;;;43.13;25.73;;;18.20;99.90;;;;;;5005447;28;20356;-69
2022/10/31 10:13:44;;;;;;;44.17;25.52;;;18.30;99.90;;;;;;5008292;28;20046;-69
2022/10/31 10:16:33;;;;;;;39.95;23.98;;;18.30;99.90;;;;;;5003532;28;20414;-69
2022/10/31 10:19:18;;;;;;;44.22;24.77;;;18.50;99.90;;;;;;5005702;28;20376;-68
2022/10/31 10:22:05;;;;;;;41.92;25.45;;;18.60;99.90;;;;;;5011638;28;20041;-69
2022/10/31 10:24:42;;;;;;;47.67;24.85;;;18.60;99.90;;;;;;5011192;28;20101;-68
2022/10/31 10:27:33;;;;;;;41.72;24.67;;;18.80;99.90;;;;;;4990413;28;20050;-68
2022/10/31 10:30:11;;;;;;;41.60;24.15;;;19.00;99.90;;;;;;5010979;28;20057;-68
2022/10/31 10:32:43;;;;;;;38.20;22.70;;;19.10;99.90;;;;;;4994144;28;20486;-67
2022/10/31 10:35:26;;;;;;;39.15;21.88;;;19.40;99.90;;;;;;5043916;28;20054;-68
2022/10/31 10:38:00;;;;;;;38.53;22.63;;;19.70;99.90;;;;;;5011510;28;20132;-70
2022/10/31 10:40:27;;;;;;;45.47;24.45;;;20.10;99.90;;;;;;5011149;28;20045;-69
2022/10/31 10:43:20;;;;;;;44.55;23.92;;;20.40;99.90;;;;;;5005050;28;20050;-69
2022/10/31 10:49:03;;;;;;;33.33;20.85;;;21.00;99.30;;;;;;5007487;28;20081;-69
2022/10/31 10:51:59;;;;;;;36.50;21.58;;;21.30;99.00;;;;;;5007175;28;20522;-69
2022/10/31 10:55:12;;;;;;;32.97;20.10;;;21.30;97.80;;;;;;5009963;28;20543;-69
2022/10/31 10:57:57;;;;;;;36.53;20.73;;;21.70;98.50;;;;;;5023664;28;20049;-70
2022/10/31 11:00:27;;;;;;;35.80;20.48;;;21.90;97.60;;;;;;5010955;28;20053;-69
2022/10/31 11:02:53;;;;;;;31.80;18.40;;;22.20;97.20;;;;;;5007969;28;20042;-68
2022/10/31 11:05:37;;;;;;;28.00;17.90;;;22.10;95.50;;;;;;5010271;28;20096;-71
2022/10/31 11:08:05;;;;;;;30.15;17.15;;;22.30;96.20;;;;;;4992303;28;20050;-70
2022/10/31 11:10:31;;;;;;;28.27;14.83;;;22.60;95.20;;;;;;4993298;28;20049;-68
2022/10/31 11:13:15;;;;;;;27.83;14.60;;;22.80;95.60;;;;;;5001838;28;20395;-69
2022/10/31 11:16:11;;;;;;;23.52;12.93;;;22.90;94.60;;;;;;5007339;28;20073;-69
2022/10/31 11:18:39;;;;;;;21.02;13.02;;;22.90;94.10;;;;;;4992599;28;20387;-70
2022/10/31 11:21:05;;;;;;;22.77;12.68;;;22.90;93.30;;;;;;4993181;28;20045;-70
2022/10/31 11:23:31;;;;;;;21.13;12.38;;;22.90;93.10;;;;;;5010199;28;20050;-70
2022/10/31 11:26:01;;;;;;;22.83;13.20;;;22.60;94.20;;;;;;5010607;28;20127;-70
2022/10/31 11:28:32;;;;;;;23.83;13.68;;;22.70;93.60;;;;;;5010404;28;20103;-68
2022/10/31 11:31:08;;;;;;;22.45;12.35;;;22.90;94.50;;;;;;4988041;28;20915;-70
2022/10/31 11:33:39;;;;;;;23.48;13.60;;;23.10;94.10;;;;;;5009686;28;20057;-69
2022/10/31 11:36:27;;;;;;;24.70;13.98;;;23.40;94.30;;;;;;5010351;28;20468;-68
2022/10/31 11:38:52;;;;;;;26.20;15.20;;;23.40;93.60;;;;;;5010389;28;20183;-69
2022/10/31 11:41:31;;;;;;;23.48;14.20;;;23.40;93.50;;;;;;4990189;28;20050;-69
2022/10/31 11:43:58;;;;;;;23.55;13.05;;;23.50;93.60;;;;;;5008900;28;20452;-69
2022/10/31 11:46:41;;;;;;;23.65;13.13;;;23.50;93.70;;;;;;5009949;28;20051;-68
2022/10/31 11:49:30;;;;;;;22.25;13.52;;;23.40;93.10;;;;;;4993581;28;20526;-69
2022/10/31 11:51:57;;;;;;;23.58;13.50;;;23.00;92.90;;;;;;5009392;28;20707;-69
2022/10/31 11:54:27;;;;;;;24.15;13.80;;;22.90;94.00;;;;;;5004557;28;20467;-68
2022/10/31 11:56:53;;;;;;;24.25;14.43;;;23.00;93.70;;;;;;5009590;28;20058;-69
2022/10/31 11:59:31;;;;;;;25.10;14.40;;;23.10;94.00;;;;;;5009898;28;20041;-70
2022/10/31 12:02:00;;;;;;;;;;;22.90;93.80;;;;;;4991883;28;20092;-69
2022/10/31 12:04:44;;;;;;;27.20;13.63;;;22.90;94.00;;;;;;4993369;28;19914;-69
2022/10/31 12:07:13;;;;;;;23.38;12.13;;;22.70;94.20;;;;;;5006145;28;20045;-69
2022/10/31 12:09:39;;;;;;;24.73;13.00;;;22.70;94.10;;;;;;5004849;28;20042;-69
2022/10/31 12:12:31;;;;;;;23.08;11.95;;;22.50;94.00;;;;;;5009308;28;20077;-70
2022/10/31 12:15:15;;;;;;;18.52;10.48;;;22.50;94.20;;;;;;4989369;28;20049;-70
2022/10/31 12:17:53;;;;;;;20.50;10.80;;;22.60;94.10;;;;;;5009078;28;20088;-69
2022/10/31 12:20:24;;;;;;;19.00;9.38;;;22.50;94.00;;;;;;5008950;28;20042;-68
2022/10/31 12:23:06;;;;;;;21.60;10.95;;;22.60;93.90;;;;;;5008368;28;20045;-69
2022/10/31 12:25:43;;;;;;;19.08;10.18;;;22.60;93.90;;;;;;5009633;28;20379;-72
2022/10/31 12:28:24;;;;;;;19.73;10.38;;;22.40;94.00;;;;;;5019389;28;20537;-70
2022/10/31 12:30:57;;;;;;;18.50;9.40;;;22.30;94.30;;;;;;5025271;28;20065;-70
2022/10/31 12:33:27;;;;;;;18.90;8.48;;;21.90;93.80;;;;;;5006483;28;20053;-69
2022/10/31 12:36:05;;;;;;;17.65;7.78;;;21.70;94.50;;;;;;4992294;28;21039;-70
2022/10/31 12:39:22;;;;;;;15.27;8.23;;;21.50;94.80;;;;;;4990799;28;20054;-69
2022/10/31 12:42:06;;;;;;;15.23;7.25;;;21.40;95.20;;;;;;4990384;28;20041;-70
2022/10/31 12:45:18;;;;;;;12.95;5.72;;;21.30;95.00;;;;;;5006304;28;20073;-71
2022/10/31 12:48:02;;;;;;;19.50;4.78;;;21.10;94.70;;;;;;4977998;28;20061;-70
2022/10/31 12:50:39;;;;;;;9.55;3.47;;;21.10;94.60;;;;;;5007518;28;20477;-70